Time;durP1;ratioP1;P1;durP2;ratioP2;P2;SDS_P1;SDS_P2;PMS_P1;PMS_P2;Temp;Humidity;BMP_temperature;BMP_pressure;BME280_temperature;BME280_humidity;BME280_pressure;Samples;Min_cycle;Max_cycle;Signal;HPM_P1;HPM_P2
2022/04/06 00:01:59;;;;;;;;;;;13.20;47.20;;;11.58;48.96;99675.69;8243196;28;19918;-80
2022/04/06 00:06:21;;;;;;;;;;;13.20;47.30;;;11.47;48.50;99654.75;8224473;28;19918;-80
2022/04/06 00:10:43;;;;;;;;;;;13.10;47.20;;;11.62;48.84;99684.16;8234398;28;19925;-80
2022/04/06 00:15:07;;;;;;;;;;;13.20;47.50;;;11.61;48.93;99682.47;8254583;28;20012;-80
2022/04/06 00:19:30;;;;;;;;;;;13.20;47.30;;;11.62;49.00;99676.31;8253824;28;19929;-80
2022/04/06 00:23:52;;;;;;;;;;;13.20;47.60;;;11.65;48.86;99681.31;8248205;28;19924;-80
2022/04/06 00:28:13;;;;;;;;;;;13.20;47.80;;;11.69;48.88;99680.09;8236586;28;19932;-80
2022/04/06 00:32:35;;;;;;;;;;;13.20;47.60;;;11.70;49.29;99680.00;8245957;28;20017;-79
2022/04/06 00:36:57;;;;;;;;;;;13.30;47.70;;;11.58;48.77;99649.53;8250357;28;19952;-80
2022/04/06 00:41:20;;;;;;;;;;;13.20;47.70;;;11.62;49.40;99665.84;8268404;28;20359;-81
2022/04/06 00:45:43;;;;;;;;;;;13.10;47.60;;;11.71;48.86;99668.56;8279279;28;20550;-80
2022/04/06 00:50:05;;;;;;;;;;;13.30;47.90;;;11.60;49.16;99641.59;8240052;28;19926;-80
2022/04/06 00:54:29;;;;;;;;;;;13.30;47.90;;;11.70;49.50;99663.47;8243681;28;20475;-80
2022/04/06 00:58:51;;;;;;;;;;;13.30;47.90;;;11.66;49.23;99646.34;8245167;28;19922;-80
2022/04/06 01:03:12;;;;;;;;;;;13.20;47.90;;;11.76;49.69;99672.63;8272155;28;20024;-80
2022/04/06 01:07:34;;;;;;;;;;;13.30;48.30;;;11.78;49.46;99678.59;8231836;28;19918;-80
2022/04/06 01:11:56;;;;;;;;;;;13.30;48.10;;;11.70;49.53;99668.72;8279318;28;19917;-80
2022/04/06 01:16:18;;;;;;;;;;;13.30;48.10;;;11.82;49.40;99678.22;8250852;28;19928;-80
2022/04/06 01:20:39;;;;;;;;;;;13.30;47.90;;;11.66;49.29;99641.09;8240369;28;20021;-80
2022/04/06 01:25:02;;;;;;;;;;;13.20;47.80;;;11.84;49.37;99670.25;8243930;28;20031;-80
2022/04/06 01:29:24;;;;;;;;;;;13.40;48.10;;;11.82;49.51;99659.91;8244745;28;19994;-81
2022/04/06 01:33:46;;;;;;;;;;;13.30;48.00;;;11.81;49.48;99666.09;8236596;28;20417;-80
2022/04/06 01:38:08;;;;;;;;;;;13.40;47.90;;;11.67;49.62;99637.56;8257469;28;20376;-81
2022/04/06 01:42:31;;;;;;;;;;;13.40;48.20;;;11.86;49.73;99661.38;8262252;28;19926;-80
2022/04/06 01:46:53;;;;;;;;;;;13.40;48.20;;;11.82;49.42;99659.91;8258775;28;19918;-80
2022/04/06 01:55:56;;;;;;;;;;;13.40;47.90;;;11.82;49.78;99652.03;8249694;28;19925;-81
2022/04/06 02:00:18;;;;;;;;;;;13.30;48.20;;;11.89;50.03;99670.75;8270909;28;20004;-80
2022/04/06 02:04:41;;;;;;;;;;;13.40;48.30;;;11.79;49.33;99638.38;8268084;28;20012;-81
2022/04/06 02:09:03;;;;;;;;;;;13.50;48.40;;;11.90;49.75;99668.00;8287278;28;19922;-80
2022/04/06 02:13:26;;;;;;;;;;;13.50;48.70;;;11.90;49.57;99660.16;8231761;28;19921;-80
2022/04/06 02:17:48;;;;;;;;;;;13.50;48.50;;;11.88;50.00;99654.25;8286129;28;20035;-80
2022/04/06 02:22:10;;;;;;;;;;;13.40;48.20;;;11.80;49.39;99634.81;8257426;28;20012;-80
2022/04/06 02:26:32;;;;;;;;;;;13.40;48.10;;;11.93;49.78;99659.91;8277324;28;20090;-80
2022/04/06 02:30:54;;;;;;;;;;;13.40;48.30;;;11.84;49.92;99639.69;8250509;28;20032;-80
2022/04/06 02:35:15;;;;;;;;;;;13.50;48.20;;;11.81;49.83;99629.47;8254239;28;20016;-81
2022/04/06 02:39:37;;;;;;;;;;;13.50;48.20;;;11.95;50.31;99658.03;8263419;28;19928;-80
2022/04/06 02:43:59;;;;;;;;;;;13.50;48.10;;;11.92;50.13;99636.50;8232755;28;19921;-80
2022/04/06 02:48:21;;;;;;;;;;;13.50;48.30;;;11.99;49.77;99647.31;8243493;28;20009;-81
2022/04/06 02:52:43;;;;;;;;;;;13.50;48.30;;;11.83;50.05;99621.50;8273437;28;20608;-80
2022/04/06 02:57:06;;;;;;;;;;;13.50;48.20;;;11.94;49.97;99643.28;8268944;28;19930;-81
2022/04/06 03:01:28;;;;;;;;;;;13.50;48.20;;;11.92;50.25;99632.09;8260745;28;19924;-80
2022/04/06 03:05:49;;;;;;;;;;;13.50;48.30;;;11.87;49.71;99623.78;8260072;28;19994;-80
2022/04/06 03:10:11;;;;;;;;;;;13.50;48.30;;;11.84;50.36;99623.16;8275100;28;19924;-80
2022/04/06 03:14:33;;;;;;;;;;;13.50;48.20;;;11.94;50.15;99643.28;8243366;28;20007;-80
2022/04/06 03:18:55;;;;;;;;;;;13.50;49.30;;;11.94;49.79;99648.53;8249818;28;19952;-81
2022/04/06 03:23:17;;;;;;;;;;;13.40;48.70;;;11.90;49.79;99636.63;8259376;28;19929;-81
2022/04/06 03:27:39;;;;;;;;;;;13.50;48.90;;;11.83;50.38;99630.19;8241463;28;19924;-81
2022/04/06 03:32:01;;;;;;;;;;;13.80;48.80;;;11.83;50.23;99626.75;8247576;28;20133;-80
2022/04/06 03:36:23;;;;;;;;;;;13.50;49.00;;;11.82;50.38;99627.69;8272972;28;20338;-81
2022/04/06 03:40:44;;;;;;;;;;;13.50;48.30;;;11.92;50.59;99645.19;8245469;28;20444;-81
2022/04/06 03:45:07;;;;;;;;;;;13.40;48.50;;;11.84;50.23;99637.06;8243168;28;19921;-80
2022/04/06 03:49:29;;;;;;;;;;;13.50;48.60;;;11.78;50.14;99629.72;8247094;28;19928;-80
2022/04/06 03:53:51;;;;;;;;;;;13.50;48.50;;;11.92;50.28;99658.28;8251690;28;19922;-81
2022/04/06 03:58:13;;;;;;;;;;;13.40;48.50;;;11.70;50.74;99626.88;8275240;28;20385;-81
2022/04/06 04:02:35;;;;;;;;;;;13.40;48.40;;;11.79;50.23;99636.59;8240043;28;19918;-80
2022/04/06 04:06:57;;;;;;;;;;;13.40;48.60;;;11.68;50.12;99618.28;8250122;28;19918;-80
2022/04/06 04:11:19;;;;;;;;;;;13.50;48.60;;;11.73;50.11;99642.31;8273071;28;20002;-80
2022/04/06 04:15:41;;;;;;;;;;;13.40;48.60;;;11.80;50.62;99655.72;8215592;28;19921;-80
2022/04/06 04:20:03;;;;;;;;;;;13.40;48.80;;;11.79;50.80;99649.69;8233302;28;19931;-80
2022/04/06 04:24:25;;;;;;;;;;;13.40;48.90;;;11.85;50.37;99667.50;8225942;28;19918;-81
2022/04/06 04:28:47;;;;;;;;;;;13.30;48.90;;;11.82;50.38;99656.44;8249707;28;20020;-81
2022/04/06 04:33:09;;;;;;;;;;;13.30;48.80;;;11.79;50.66;99651.47;8244909;28;20379;-81
2022/04/06 04:37:31;;;;;;;;;;;13.30;48.40;;;11.72;50.80;99651.13;8240138;28;20371;-80
2022/04/06 04:41:53;;;;;;;;;;;13.30;48.70;;;11.78;50.69;99663.72;8257471;28;20454;-80
2022/04/06 04:46:14;;;;;;;;;;;13.30;48.60;;;11.77;50.46;99669.88;8233830;28;19925;-80
2022/04/06 04:50:36;;;;;;;;;;;13.30;48.60;;;11.75;50.83;99684.88;8235634;28;19918;-80
2022/04/06 04:54:57;;;;;;;;;;;13.20;48.70;;;11.74;50.96;99685.81;8250930;28;20012;-80
2022/04/06 04:59:19;;;;;;;;;;;13.30;48.90;;;11.66;50.80;99675.94;8241648;28;19922;-80
2022/04/06 05:03:41;;;;;;;;;;;13.30;48.70;;;11.76;50.45;99690.94;8250170;28;19928;-81
2022/04/06 05:08:03;;;;;;;;;;;13.20;48.60;;;11.66;50.63;99683.78;8252527;28;20016;-81
2022/04/06 05:12:26;;;;;;;;;;;13.30;49.00;;;11.70;50.65;99692.25;8216699;28;19918;-81
2022/04/06 05:16:47;;;;;;;;;;;13.30;49.00;;;11.74;50.73;99698.88;8223989;28;19929;-81
2022/04/06 05:21:09;;;;;;;;;;;13.20;48.80;;;11.71;50.75;99691.28;8222113;28;19918;-82
2022/04/06 05:25:30;;;;;;;;;;;13.30;49.00;;;11.61;50.91;99677.25;8221468;28;19922;-81
2022/04/06 05:29:52;;;;;;;;;;;13.30;49.20;;;11.74;50.90;99699.72;8211262;28;19986;-82
2022/04/06 05:34:16;;;;;;;;;;;13.30;49.00;;;11.73;50.55;99705.91;8250197;28;20016;-80
2022/04/06 05:38:38;;;;;;;;;;;13.30;49.00;;;11.77;50.53;99711.72;8254511;28;19929;-83
2022/04/06 05:42:59;;;;;;;;;;;13.40;48.90;;;11.60;50.79;99684.25;8261245;28;20017;-82
2022/04/06 05:47:21;;;;;;;;;;;13.30;48.80;;;11.73;51.11;99705.91;8263935;28;20016;-80
2022/04/06 05:51:44;;;;;;;;;;;13.30;48.90;;;11.74;51.24;99707.56;8246722;28;19936;-79
2022/04/06 05:56:06;;;;;;;;;;;13.30;49.10;;;11.83;50.86;99715.69;8263986;28;20297;-80
2022/04/06 06:00:28;;;;;;;;;;;13.30;48.90;;;11.83;50.99;99718.31;8224786;28;19921;-80
2022/04/06 06:04:53;;;;;;;;;;;13.30;49.00;;;11.78;51.18;99713.41;8234122;28;19977;-81
2022/04/06 06:09:15;;;;;;;;;;;13.30;49.40;;;11.71;50.92;99701.75;8242110;28;19918;-81
2022/04/06 06:13:36;;;;;;;;;;;13.30;49.00;;;11.86;50.75;99726.78;8257041;28;20370;-80
2022/04/06 06:17:58;;;;;;;;;;;13.40;49.00;;;11.88;51.03;99724.88;8228042;28;19929;-82
2022/04/06 06:22:20;;;;;;;;;;;13.30;49.10;;;11.87;51.05;99723.19;8276417;28;20013;-80
2022/04/06 06:26:44;;;;;;;;;;;13.40;49.20;;;11.94;51.32;99741.88;8249115;28;20017;-80
2022/04/06 06:31:06;;;;;;;;;;;13.40;49.20;;;11.82;51.22;99706.16;8253054;28;20446;-80
2022/04/06 06:35:27;;;;;;;;;;;13.40;49.10;;;11.91;51.28;99714.16;8236586;28;20522;-79
2022/04/06 06:39:52;;;;;;;;;;;13.50;49.20;;;11.91;51.11;99719.41;8255156;28;20353;-81
2022/04/06 06:44:14;;;;;;;;;;;13.50;49.20;;;12.01;51.66;99731.75;8252963;28;20005;-83
2022/04/06 06:48:36;;;;;;;;;;;13.50;49.10;;;11.86;50.96;99694.56;8242719;28;20431;-80
2022/04/06 06:52:58;;;;;;;;;;;13.50;50.30;;;11.86;51.41;99694.56;8272829;28;20009;-80
2022/04/06 06:57:19;;;;;;;;;;;13.50;49.80;;;11.97;51.42;99712.03;8222679;28;20307;-81
2022/04/06 07:01:41;;;;;;;;;;;13.50;49.60;;;12.04;51.35;99719.25;8245277;28;20399;-81
2022/04/06 07:06:03;;;;;;;;;;;13.50;49.70;;;11.93;51.46;99695.72;8251555;28;20244;-81
2022/04/06 07:10:25;;;;;;;;;;;13.60;50.00;;;12.05;51.44;99717.50;8244349;28;19918;-81
2022/04/06 07:14:47;;;;;;;;;;;13.60;49.60;;;12.13;51.56;99718.56;8257502;28;20352;-80
2022/04/06 07:19:09;;;;;;;;;;;13.70;49.50;;;12.18;51.62;99720.84;8262182;28;19944;-80
2022/04/06 07:23:31;;;;;;;;;;;13.70;49.60;;;11.85;51.51;99651.81;8259563;28;20016;-80
2022/04/06 07:27:52;;;;;;;;;;;13.80;49.30;;;11.89;51.30;99653.28;8246392;28;20451;-80
2022/04/06 07:32:14;;;;;;;;;;;13.80;49.40;;;12.15;51.47;99673.94;8244875;28;20350;-80
2022/04/06 07:36:37;;;;;;;;;;;13.80;49.90;;;12.24;51.59;99683.69;8241936;28;20594;-80
2022/04/06 07:40:59;;;;;;;;;;;13.90;49.90;;;12.32;51.60;99685.72;8243853;28;20021;-82
2022/04/06 07:45:21;;;;;;;;;;;13.90;50.00;;;12.32;51.66;99678.69;8244175;28;20004;-82
2022/04/06 07:49:43;;;;;;;;;;;13.90;50.20;;;12.45;51.39;99677.69;8269775;28;20012;-84
2022/04/06 07:54:05;;;;;;;;;;;14.00;49.80;;;12.54;51.38;99690.06;8247095;28;20024;-83
2022/04/06 07:58:27;;;;;;;;;;;14.10;49.80;;;12.40;51.69;99654.53;8239394;28;19929;-83
2022/04/06 08:02:50;;;;;;;;;;;14.40;50.00;;;12.69;51.63;99678.38;8258038;28;20005;-84
2022/04/06 08:07:11;;;;;;;;;;;14.20;50.30;;;12.66;51.39;99665.50;8250361;28;19921;-82
2022/04/06 08:11:33;;;;;;;;;;;14.30;50.30;;;12.86;51.57;99678.78;8222646;28;20008;-81
2022/04/06 08:15:55;;;;;;;;;;;14.40;50.30;;;12.89;51.71;99671.50;8270816;28;19926;-80
2022/04/06 08:20:18;;;;;;;;;;;14.50;49.90;;;13.05;51.68;99671.06;8261780;28;19928;-82
2022/04/06 08:24:41;;;;;;;;;;;14.60;50.20;;;13.09;51.64;99659.38;8219499;28;21590;-79
2022/04/06 08:29:03;;;;;;;;;;;14.80;49.90;;;13.23;51.63;99653.81;8252823;28;20466;-80
2022/04/06 08:33:24;;;;;;;;;;;14.90;49.90;;;13.45;51.55;99688.78;8242185;28;20005;-80
2022/04/06 08:37:46;;;;;;;;;;;15.00;50.40;;;13.53;51.60;99673.22;8235903;28;19922;-81
2022/04/06 08:42:09;;;;;;;;;;;15.10;50.30;;;13.60;51.58;99666.47;8242264;28;20016;-82
2022/04/06 08:46:34;;;;;;;;;;;15.20;49.90;;;13.76;51.76;99681.75;8269857;28;20012;-81
2022/04/06 08:51:00;;;;;;;;;;;15.10;50.00;;;13.76;51.64;99680.94;8261603;28;20025;-81
2022/04/06 08:55:22;;;;;;;;;;;15.40;49.70;;;13.82;51.70;99677.78;8249018;28;20005;-81
2022/04/06 08:59:46;;;;;;;;;;;15.40;49.90;;;13.76;51.66;99668.63;8245418;28;19929;-81
2022/04/06 09:04:08;;;;;;;;;;;15.40;49.40;;;13.82;51.54;99686.47;8267636;28;20008;-80
2022/04/06 09:08:34;;;;;;;;;;;15.50;49.00;;;13.80;51.75;99677.91;8244705;28;19997;-81
2022/04/06 09:13:20;;;;;;;;;;;15.50;48.90;;;13.82;51.51;99685.63;8272405;28;20345;-81
2022/04/06 09:17:45;;;;;;;;;;;15.50;49.10;;;13.75;51.34;99671.41;8240398;28;19926;-82
2022/04/06 09:22:07;;;;;;;;;;;15.70;49.10;;;13.76;51.49;99675.69;8267811;28;19918;-81
2022/04/06 09:26:31;;;;;;;;;;;15.50;48.40;;;13.80;51.50;99664.78;8236854;28;20393;-81
2022/04/06 09:30:53;;;;;;;;;;;15.50;48.70;;;13.83;51.43;99664.53;8269618;28;19996;-81
2022/04/06 09:35:25;;;;;;;;;;;15.50;48.80;;;13.85;51.35;99656.50;8251238;28;19924;-80
2022/04/06 09:39:47;;;;;;;;;;;15.50;48.90;;;14.00;51.35;99668.31;8269056;28;20429;-80
2022/04/06 09:47:38;;;;;;;;;;;15.50;48.70;;;14.00;51.31;99655.19;8226511;28;20005;-80
2022/04/06 09:48:56;;;;;;;;;;;15.70;48.70;;;13.72;51.24;99593.78;8227532;28;20379;-80
2022/04/06 09:53:20;;;;;;;;;;;15.70;48.60;;;14.14;51.39;99657.44;8234424;28;19924;-84
2022/04/06 09:57:51;;;;;;;;;;;15.70;48.60;;;14.07;51.31;99631.84;8236022;28;20383;-80
2022/04/06 10:02:13;;;;;;;;;;;15.80;48.50;;;14.24;51.30;99640.91;8267444;28;20397;-79
2022/04/06 10:06:39;;;;;;;;;;;15.80;48.30;;;14.28;51.50;99634.41;8260582;28;20397;-81
2022/04/06 10:11:01;;;;;;;;;;;15.70;48.10;;;14.14;51.15;99604.09;8276914;28;19924;-80
2022/04/06 10:15:24;;;;;;;;;;;15.80;48.10;;;14.29;50.96;99615.06;8273824;28;20420;-83
2022/04/06 10:19:51;;;;;;;;;;;16.00;48.10;;;14.38;51.35;99627.38;8266032;28;19922;-83
2022/04/06 10:24:46;;;;;;;;;;;15.80;47.80;;;14.43;51.04;99637.47;8260386;28;20020;-82
2022/04/06 10:29:08;;;;;;;;;;;16.10;47.80;;;14.48;51.05;99630.84;8255100;28;19918;-83
2022/04/06 10:33:32;;;;;;;;;;;16.00;47.70;;;14.48;51.22;99643.97;8262400;28;20024;-84
2022/04/06 10:37:56;;;;;;;;;;;16.00;47.60;;;14.48;50.85;99633.47;8241476;28;20294;-82
2022/04/06 10:42:35;;;;;;;;;;;16.10;47.50;;;14.41;51.07;99616.59;8252677;28;20013;-82
2022/04/06 10:47:06;;;;;;;;;;;16.10;47.40;;;14.47;50.83;99626.53;8232152;28;20349;-83
2022/04/06 10:51:30;;;;;;;;;;;16.00;47.50;;;14.47;50.78;99626.53;8231366;28;19996;-84
2022/04/06 10:56:12;;;;;;;;;;;16.10;47.50;;;14.43;50.69;99613.84;8269243;28;19918;-82
2022/04/06 11:00:39;;;;;;;;;;;16.10;47.40;;;14.46;50.98;99638.03;8253929;28;20410;-82
2022/04/06 11:05:02;;;;;;;;;;;16.00;47.40;;;14.33;50.77;99619.06;8252438;28;20017;-80
2022/04/06 11:14:25;;;;;;;;;;;16.00;47.20;;;14.41;50.70;99637.59;8264186;28;20393;-80
2022/04/06 11:18:47;;;;;;;;;;;16.00;47.20;;;14.40;50.77;99635.94;8240291;28;19934;-81
2022/04/06 11:23:12;;;;;;;;;;;16.00;47.30;;;13.99;50.85;99542.44;8242345;28;20036;-81
2022/04/06 11:27:35;;;;;;;;;;;16.00;47.50;;;14.62;51.07;99634.06;8249007;28;20010;-81
2022/04/06 11:32:03;;;;;;;;;;;16.10;47.50;;;14.64;50.98;99616.38;8271805;28;20012;-81
2022/04/06 11:36:24;;;;;;;;;;;16.20;47.50;;;14.67;50.89;99608.22;8273807;28;20000;-81
2022/04/06 11:40:46;;;;;;;;;;;16.20;47.30;;;14.60;50.93;99611.38;8246881;28;19925;-80
2022/04/06 11:45:09;;;;;;;;;;;16.30;47.20;;;14.61;50.77;99606.97;8254509;28;20511;-80
2022/04/06 11:49:31;;;;;;;;;;;16.30;47.00;;;14.61;50.68;99620.09;8239878;28;20005;-80
2022/04/06 11:53:53;;;;;;;;;;;16.20;47.00;;;14.48;50.56;99601.94;8250685;28;20004;-82
2022/04/06 11:58:36;;;;;;;;;;;16.20;46.90;;;14.56;50.49;99620.50;8244570;28;19926;-80
2022/04/06 12:02:58;;;;;;;;;;;16.20;46.90;;;14.45;50.49;99617.97;8255118;28;19924;-80
2022/04/06 12:07:20;;;;;;;;;;;16.20;46.90;;;14.43;50.77;99609.41;8245066;28;20402;-79
2022/04/06 12:11:42;;;;;;;;;;;16.10;46.70;;;14.35;50.45;99606.63;8228701;28;20393;-80
2022/04/06 12:16:04;;;;;;;;;;;16.00;46.70;;;14.32;50.80;99596.41;8274801;28;20454;-80
2022/04/06 12:20:27;;;;;;;;;;;16.00;46.50;;;14.21;50.45;99583.41;8264493;28;20388;-80
2022/04/06 12:24:49;;;;;;;;;;;15.80;46.60;;;14.41;50.76;99613.13;8244764;28;20004;-81
2022/04/06 12:29:14;;;;;;;;;;;15.70;46.70;;;14.31;50.65;99598.22;8246976;28;20350;-80
2022/04/06 12:33:42;;;;;;;;;;;16.10;46.90;;;14.20;50.41;99568.59;8244537;28;20033;-81
2022/04/06 12:38:15;;;;;;;;;;;15.90;46.80;;;14.41;50.54;99600.00;8268615;28;19926;-80
2022/04/06 12:42:37;;;;;;;;;;;15.80;46.80;;;14.24;50.61;99570.00;8249815;28;20397;-80
2022/04/06 12:47:00;;;;;;;;;;;15.90;46.90;;;14.44;50.79;99599.72;8247156;28;19928;-79
2022/04/06 12:51:22;;;;;;;;;;;15.90;46.90;;;14.32;50.62;99586.72;8246892;28;20009;-80
2022/04/06 12:55:44;;;;;;;;;;;16.00;46.80;;;14.51;50.55;99600.84;8240574;28;20013;-81
2022/04/06 13:00:10;;;;;;;;;;;16.00;46.90;;;14.42;50.31;99593.75;8251979;28;19944;-80
2022/04/06 13:04:37;;;;;;;;;;;16.00;46.90;;;14.39;50.49;99585.22;8234202;28;19924;-82
2022/04/06 13:08:58;;;;;;;;;;;16.00;47.30;;;14.29;50.42;99557.28;8244907;28;20078;-80
2022/04/06 13:13:20;;;;;;;;;;;16.00;46.90;;;14.44;50.73;99590.03;8249412;28;20127;-81
2022/04/06 13:17:44;;;;;;;;;;;16.00;47.10;;;14.39;50.58;99584.38;8238343;28;20008;-81
2022/04/06 13:22:06;;;;;;;;;;;15.90;46.80;;;14.44;50.37;99594.47;8270224;28;19922;-81
2022/04/06 13:26:28;;;;;;;;;;;16.00;46.80;;;14.25;50.55;99566.41;8236012;28;19997;-81
2022/04/06 13:30:51;;;;;;;;;;;16.00;46.70;;;14.40;50.48;99583.41;8246366;28;20021;-80
2022/04/06 13:35:14;;;;;;;;;;;15.90;46.60;;;14.34;50.25;99574.28;8221187;28;19928;-81
2022/04/06 13:39:38;;;;;;;;;;;16.00;46.70;;;14.34;50.56;99568.22;8254778;28;20379;-81
2022/04/06 13:43:59;;;;;;;;;;;15.90;46.60;;;14.42;50.53;99586.75;8254952;28;20553;-81
2022/04/06 13:48:21;;;;;;;;;;;15.90;46.60;;;14.43;50.33;99590.19;8250350;28;20411;-81
2022/04/06 13:52:43;;;;;;;;;;;15.90;46.60;;;14.40;50.35;99575.53;8265358;28;20008;-81
2022/04/06 13:57:05;;;;;;;;;;;15.90;46.50;;;14.37;50.37;99570.56;8247724;28;20016;-80
2022/04/06 14:01:27;;;;;;;;;;;15.80;46.40;;;14.39;50.25;99566.84;8242665;28;19928;-82
2022/04/06 14:05:51;;;;;;;;;;;15.90;46.50;;;14.42;50.13;99559.63;8267059;28;20024;-81
2022/04/06 14:10:12;;;;;;;;;;;16.00;46.50;;;14.32;50.15;99546.50;8271959;28;20036;-81
2022/04/06 14:14:34;;;;;;;;;;;16.00;46.40;;;14.47;50.14;99568.75;8263627;28;20000;-82
2022/04/06 14:18:58;;;;;;;;;;;16.10;46.50;;;14.48;50.43;99562.53;8276279;28;20397;-82
2022/04/06 14:23:19;;;;;;;;;;;16.00;46.40;;;14.44;50.41;99542.75;8275564;28;19924;-81
2022/04/06 14:27:43;;;;;;;;;;;16.00;46.30;;;14.35;50.05;99517.34;8240213;28;20016;-80
2022/04/06 14:32:05;;;;;;;;;;;15.90;46.20;;;14.52;50.07;99544.69;8247066;28;19918;-81
2022/04/06 14:36:26;;;;;;;;;;;16.00;46.20;;;14.54;50.14;99532.28;8247555;28;20005;-81
2022/04/06 14:40:49;;;;;;;;;;;16.00;46.20;;;14.41;50.18;99510.69;8263690;28;19928;-81
2022/04/06 14:45:12;;;;;;;;;;;16.10;46.10;;;14.47;50.12;99521.47;8244122;28;19924;-81
2022/04/06 14:49:34;;;;;;;;;;;16.00;46.10;;;14.51;50.29;99528.09;8268561;28;20001;-82
2022/04/06 14:53:56;;;;;;;;;;;16.00;46.10;;;14.56;50.21;99536.44;8252937;28;19925;-82
2022/04/06 14:58:18;;;;;;;;;;;16.10;46.10;;;14.48;50.07;99524.94;8254008;28;20069;-83
2022/04/06 15:02:39;;;;;;;;;;;16.00;46.10;;;14.40;50.22;99509.88;8253222;28;20336;-83
2022/04/06 15:07:01;;;;;;;;;;;16.10;46.00;;;14.44;49.91;99518.28;8237917;28;20014;-80
2022/04/06 15:11:23;;;;;;;;;;;16.00;46.00;;;14.43;50.24;99525.34;8233561;28;19918;-80
2022/04/06 15:15:45;;;;;;;;;;;16.00;46.00;;;14.41;49.96;99511.53;8264372;28;20016;-80
2022/04/06 15:20:07;;;;;;;;;;;16.00;46.00;;;14.43;49.83;99514.03;8273261;28;19928;-80
2022/04/06 15:24:29;;;;;;;;;;;16.00;45.90;;;14.43;50.05;99512.22;8245881;28;20016;-80
2022/04/06 15:28:51;;;;;;;;;;;15.90;45.90;;;14.47;49.92;99510.94;8249135;28;20012;-80
2022/04/06 15:33:14;;;;;;;;;;;16.00;45.90;;;14.48;49.94;99517.88;8268701;28;19925;-80
2022/04/06 15:37:36;;;;;;;;;;;16.00;45.80;;;14.34;50.13;99486.81;8233047;28;20016;-80
2022/04/06 15:41:58;;;;;;;;;;;15.90;45.90;;;14.32;49.99;99479.06;8239307;28;19937;-80
2022/04/06 15:46:19;;;;;;;;;;;16.00;46.00;;;14.44;49.94;99474.47;8239161;28;19918;-80
2022/04/06 15:50:41;;;;;;;;;;;16.00;46.00;;;14.32;50.06;99455.41;8274012;28;20008;-80
2022/04/06 15:55:03;;;;;;;;;;;15.90;45.90;;;14.36;50.02;99471.72;8233910;28;20379;-80
2022/04/06 15:59:25;;;;;;;;;;;16.00;46.00;;;14.32;49.92;99459.84;8214805;28;19922;-80
2022/04/06 16:03:47;;;;;;;;;;;16.00;46.20;;;14.39;49.84;99466.16;8224570;28;20351;-80
2022/04/06 16:08:10;;;;;;;;;;;16.20;45.80;;;14.42;49.67;99479.06;8228072;28;19997;-80
2022/04/06 16:12:31;;;;;;;;;;;16.00;45.80;;;14.48;50.04;99480.28;8228926;28;19993;-80
2022/04/06 16:16:53;;;;;;;;;;;15.90;45.80;;;14.35;49.95;99464.81;8228865;28;20009;-80
2022/04/06 16:21:15;;;;;;;;;;;16.00;45.80;;;14.35;49.98;99456.94;8204199;28;19928;-81
2022/04/06 16:25:37;;;;;;;;;;;16.00;45.50;;;14.26;49.80;99439.41;8224352;28;19922;-80
2022/04/06 16:29:59;;;;;;;;;;;16.00;45.60;;;14.29;49.50;99449.63;8258196;28;19924;-81
2022/04/06 16:34:21;;;;;;;;;;;15.90;45.60;;;14.39;49.26;99458.28;8238311;28;20078;-81
2022/04/06 16:38:42;;;;;;;;;;;16.00;45.50;;;14.41;49.66;99466.88;8211268;28;19926;-81
2022/04/06 16:43:04;;;;;;;;;;;15.90;45.50;;;14.42;49.68;99460.66;8247526;28;19925;-80
2022/04/06 16:47:25;;;;;;;;;;;16.00;45.60;;;14.43;49.58;99462.31;8244972;28;20012;-80
2022/04/06 16:56:28;;;;;;;;;;;15.90;45.60;;;14.32;49.54;99450.16;8226713;28;20322;-80
2022/04/06 17:00:50;;;;;;;;;;;15.90;45.40;;;14.40;49.50;99452.09;8223773;28;20387;-81
2022/04/06 17:05:14;;;;;;;;;;;15.90;45.60;;;14.27;49.50;99427.91;8221360;28;19924;-81
2022/04/06 17:09:36;;;;;;;;;;;15.90;45.50;;;14.37;49.69;99457.63;8249829;28;20725;-81
2022/04/06 17:13:57;;;;;;;;;;;15.80;45.50;;;14.21;49.51;99428.50;8211506;28;20384;-81
2022/04/06 17:18:19;;;;;;;;;;;15.90;45.50;;;14.32;49.42;99444.91;8248622;28;19929;-81
2022/04/06 17:22:41;;;;;;;;;;;15.80;45.50;;;14.30;49.61;99441.59;8225566;28;19933;-81
2022/04/06 17:27:04;;;;;;;;;;;15.80;45.50;;;14.16;49.76;99413.16;8239507;28;19928;-82
2022/04/06 17:31:26;;;;;;;;;;;15.80;45.50;;;14.26;49.31;99431.53;8280523;28;19962;-81
2022/04/06 17:35:47;;;;;;;;;;;15.80;45.40;;;14.26;49.63;99428.91;8245294;28;19926;-82
2022/04/06 17:40:09;;;;;;;;;;;15.80;45.50;;;14.15;49.50;99412.31;8227223;28;19941;-81
2022/04/06 17:44:31;;;;;;;;;;;15.80;45.50;;;14.25;49.79;99427.22;8237186;28;19932;-82
2022/04/06 17:48:53;;;;;;;;;;;15.80;45.30;;;14.16;49.48;99407.91;8239942;28;19937;-82
2022/04/06 17:53:15;;;;;;;;;;;15.80;45.40;;;14.11;49.55;99392.56;8220162;28;19923;-84
2022/04/06 17:57:37;;;;;;;;;;;15.80;45.40;;;14.16;49.32;99397.41;8255338;28;19926;-82
2022/04/06 18:01:59;;;;;;;;;;;15.70;45.40;;;14.17;49.56;99406.91;8237264;28;19968;-82
2022/04/06 18:06:20;;;;;;;;;;;15.70;45.40;;;14.26;49.57;99423.66;8210706;28;19926;-80
2022/04/06 18:15:22;;;;;;;;;;;15.70;45.40;;;14.08;49.53;99374.47;8232463;28;19928;-81
2022/04/06 18:19:44;;;;;;;;;;;15.70;45.30;;;14.06;49.34;99371.16;8222942;28;19926;-81
2022/04/06 18:24:06;;;;;;;;;;;15.70;45.40;;;14.08;49.38;99365.75;8241401;28;19925;-81
2022/04/06 18:28:28;;;;;;;;;;;15.60;45.20;;;14.15;49.41;99380.81;8220922;28;20370;-81
2022/04/06 18:32:49;;;;;;;;;;;15.60;45.20;;;13.98;49.24;99359.69;8242963;28;19922;-81
2022/04/06 18:37:11;;;;;;;;;;;15.60;45.20;;;14.05;49.50;99382.63;8248395;28;19922;-81
2022/04/06 18:41:33;;;;;;;;;;;15.40;45.10;;;14.04;49.28;99383.59;8210358;28;19926;-81
2022/04/06 18:45:55;;;;;;;;;;;15.60;45.20;;;14.05;49.37;99385.25;8190100;28;19928;-82
2022/04/06 18:50:17;;;;;;;;;;;15.40;45.20;;;14.09;49.33;99385.78;8253603;28;19926;-83
2022/04/06 18:54:38;;;;;;;;;;;15.60;45.20;;;13.99;49.22;99374.47;8225683;28;19922;-82
2022/04/06 18:59:07;;;;;;;;;;;15.40;45.20;;;13.96;49.15;99367.72;8222867;28;20530;-81
2022/04/06 19:03:29;;;;;;;;;;;15.50;45.20;;;13.87;49.22;99355.44;8210639;28;19922;-81
2022/04/06 19:07:51;;;;;;;;;;;15.50;45.20;;;13.97;49.45;99365.91;8196516;28;19928;-81
2022/04/06 19:12:13;;;;;;;;;;;15.50;45.20;;;13.92;49.18;99371.59;8229184;28;19922;-81
2022/04/06 19:16:36;;;;;;;;;;;15.40;45.20;;;13.96;49.19;99372.97;8252942;28;19931;-81
2022/04/06 19:20:57;;;;;;;;;;;15.40;45.20;;;13.88;49.31;99368.41;8239545;28;19959;-81
2022/04/06 19:25:22;;;;;;;;;;;15.40;45.30;;;13.84;49.34;99363.56;8242624;28;19964;-81
2022/04/06 19:29:44;;;;;;;;;;;15.40;45.30;;;13.89;49.32;99370.06;8222704;28;19956;-81
2022/04/06 19:34:08;;;;;;;;;;;15.40;45.30;;;13.77;49.26;99358.06;8213365;28;19936;-82
2022/04/06 19:38:30;;;;;;;;;;;15.30;45.20;;;13.81;49.31;99364.69;8217805;28;19926;-81
2022/04/06 19:42:52;;;;;;;;;;;15.30;45.30;;;13.79;49.40;99357.91;8221217;28;19932;-81
2022/04/06 19:47:14;;;;;;;;;;;15.30;45.20;;;13.82;49.32;99371.56;8201300;28;19929;-82
2022/04/06 19:51:36;;;;;;;;;;;15.30;45.20;;;13.81;49.13;99358.63;8221387;28;19918;-82
2022/04/06 19:55:57;;;;;;;;;;;15.30;45.20;;;13.68;49.00;99348.38;8215504;28;19948;-81
2022/04/06 20:00:19;;;;;;;;;;;15.30;45.30;;;13.77;49.39;99365.09;8251492;28;19932;-81
2022/04/06 20:04:41;;;;;;;;;;;15.10;45.20;;;13.79;49.48;99364.00;8242726;28;20705;-81
2022/04/06 20:09:04;;;;;;;;;;;15.20;45.30;;;13.76;49.28;99352.94;8239224;28;19922;-82
2022/04/06 20:13:26;;;;;;;;;;;15.30;45.40;;;13.77;49.19;99352.81;8232315;28;19932;-82
2022/04/06 20:17:50;;;;;;;;;;;15.30;45.40;;;13.70;49.17;99339.41;8199780;28;19926;-82
2022/04/06 20:22:12;;;;;;;;;;;15.20;45.40;;;13.54;49.24;99306.84;8225139;28;19925;-82
2022/04/06 20:26:35;;;;;;;;;;;15.10;45.50;;;13.60;49.26;99317.59;8223925;28;19922;-82